Date,TemperatureHighF,TemperatureAvgF,TemperatureLowF,DewpointHighF,DewpointAvgF,DewpointLowF,HumidityHigh,HumidityAvg,HumidityLow,PressureMaxIn,PressureMinIn,WindSpeedMaxMPH,WindSpeedAvgMPH,GustSpeedMaxMPH,PrecipitationSumIn
2013-1-1,82.6,76.0,70.4,74.0,71.4,68.0,97,86,71,30.03,29.94,10,2,13,0.03
2013-1-2,84.2,76.5,70.1,72.0,68.1,65.0,92,76,59,30.01,29.92,10,2,14,0.00
2013-1-3,78.5,71.9,69.1,74.0,69.2,66.0,94,91,86,30.04,29.95,6,1,9,0.11
2013-1-6,83.0,79.9,76.4,73.0,71.3,69.0,86,75,66,30.08,29.99,13,5,16,0.00
2013-1-7,84.1,78.1,73.7,73.0,71.4,69.0,94,80,61,30.07,29.97,12,4,17,0.11
2013-1-8,82.6,76.9,72.9,74.0,71.3,69.0,92,83,66,30.10,29.99,15,4,19,0.07
2013-1-9,82.7,78.5,73.6,72.0,69.3,65.0,86,74,56,30.14,30.03,17,5,20,0.00
2013-1-10,80.7,76.2,72.9,72.0,70.0,67.0,93,81,69,30.12,30.02,13,4,16,0.25
2013-1-11,79.9,75.3,70.8,71.0,68.8,67.0,92,80,66,30.04,29.93,10,2,13,0.15
2013-1-12,81.7,74.3,69.0,72.0,69.9,68.0,97,86,67,29.95,29.88,12,2,12,0.30
2013-1-13,81.6,74.0,65.8,70.0,65.8,63.0,96,77,54,29.99,29.91,9,2,11,0.01
2013-1-14,80.3,73.2,66.6,71.0,66.4,64.0,96,80,59,30.02,29.93,11,2,12,0.18
2013-1-15,81.2,74.9,69.1,72.0,68.7,66.0,95,81,68,29.99,29.91,9,2,14,0.14
2013-1-16,79.2,73.1,68.6,72.0,68.9,66.0,95,87,74,30.01,29.91,8,2,16,0.04
2013-1-17,83.1,76.0,69.3,72.0,68.8,64.0,95,80,56,30.03,29.92,10,2,14,0.04
2013-1-18,82.8,75.8,70.8,72.0,69.9,68.0,94,82,67,30.04,29.95,7,1,12,0.01
2013-1-19,81.9,74.4,67.1,73.0,69.3,65.0,94,84,68,30.05,29.94,9,2,13,0.18
2013-1-20,82.8,74.6,68.0,73.0,69.4,67.0,97,85,63,30.03,29.92,8,1,13,0.01
2013-1-21,83.9,75.4,67.5,73.0,70.0,66.0,96,84,67,29.99,29.89,7,1,10,0.01
2013-1-23,88.4,78.0,70.2,75.0,71.1,68.0,95,80,51,30.07,29.96,9,2,13,0.02
2013-1-24,84.3,77.3,71.2,72.0,70.3,68.0,91,79,60,30.06,29.94,9,2,12,0.00
2013-1-25,84.1,75.6,67.6,74.0,69.5,66.0,95,82,59,30.05,29.96,9,2,16,0.23
2013-1-26,82.7,76.6,72.3,76.0,72.4,70.0,97,87,67,30.05,29.97,10,2,15,0.55
2013-1-27,83.4,76.5,69.1,74.0,71.1,68.0,96,84,69,30.09,29.99,10,2,14,0.00
2013-1-28,83.0,76.9,72.3,73.0,71.0,70.0,93,83,65,30.13,30.02,13,3,16,0.00
2013-1-29,81.7,75.0,70.8,73.0,70.6,69.0,96,86,67,30.09,29.98,11,2,17,0.54
2013-1-30,82.2,75.7,70.1,72.0,70.0,68.0,94,83,67,30.05,29.97,14,4,16,0.22
2013-1-31,83.7,75.7,69.3,75.0,71.9,68.0,97,88,68,30.04,29.95,12,2,16,0.17
2013-2-1,80.9,74.2,70.5,73.0,69.9,67.0,97,87,64,30.04,29.94,9,1,13,0.29
2013-2-2,83.2,74.1,65.7,70.0,66.4,63.0,95,78,54,30.01,29.92,9,2,11,0.00
2013-2-3,84.2,76.3,67.3,70.0,66.5,63.0,93,73,49,29.97,29.86,11,2,13,0.00
2013-2-4,82.3,74.0,65.7,69.0,65.2,62.0,93,75,57,29.97,29.86,10,2,14,0.00
2013-2-5,81.5,75.2,66.5,71.0,67.2,63.0,94,77,55,30.01,29.91,8,2,15,0.21
2013-2-6,82.9,75.4,69.4,71.0,68.7,65.0,95,81,56,29.99,29.90,12,2,16,0.00
2013-2-7,84.7,76.0,67.6,73.0,70.1,66.0,95,83,59,29.96,29.86,9,3,13,0.26
2013-2-8,84.6,76.3,71.0,74.0,70.1,65.0,95,82,55,29.97,29.88,11,2,13,0.42
2013-2-9,84.4,76.1,67.5,72.0,69.2,66.0,94,80,58,30.00,29.90,9,2,14,0.00
2013-2-10,83.3,75.6,67.5,72.0,68.9,66.0,93,80,62,30.05,29.94,10,2,13,0.13
2013-2-11,79.9,75.8,71.4,73.0,70.0,66.0,94,82,73,30.07,29.98,14,5,17,0.32
2013-2-12,81.4,74.8,65.5,68.0,65.0,63.0,90,72,58,30.06,29.99,10,3,14,0.00
2013-2-13,73.4,71.6,68.9,69.0,66.6,65.0,88,84,81,30.02,30.01,1,0,2,0.00
2013-2-14,82.8,76.3,68.8,73.0,70.7,67.0,93,83,67,30.05,29.95,11,2,14,0.01
2013-2-15,88.3,76.1,67.6,72.0,68.7,66.0,94,79,53,30.04,29.93,10,2,12,0.00
2013-2-16,88.4,77.5,68.3,71.0,67.4,63.0,92,73,46,29.99,29.89,8,2,13,0.00
2013-2-17,84.9,75.1,68.5,73.0,69.0,65.0,93,82,59,30.02,29.92,9,1,12,0.00
2013-2-18,82.3,75.6,66.5,73.0,69.4,64.0,93,82,66,30.08,29.97,13,3,14,0.01
2013-2-19,82.7,75.1,68.3,74.0,69.3,66.0,92,83,60,30.07,29.97,12,3,19,0.19
2013-2-20,85.0,76.8,70.1,73.0,70.2,68.0,95,81,58,30.02,29.89,9,3,16,0.03
2013-2-21,85.7,76.7,69.5,72.0,68.3,65.0,95,77,54,30.00,29.88,8,2,15,0.00
2013-2-22,83.4,76.0,67.3,72.0,69.1,65.0,92,80,64,30.03,29.93,11,3,14,0.00
2013-2-23,82.6,76.8,71.1,70.0,68.8,67.0,90,77,62,30.02,29.93,11,3,15,0.00
2013-2-24,82.7,75.6,67.9,73.0,69.7,65.0,94,82,68,30.00,29.88,11,3,17,0.05
2013-2-25,88.0,76.3,67.9,71.0,68.9,65.0,92,79,51,29.96,29.85,11,2,14,0.01
2013-2-26,83.3,77.1,71.8,73.0,71.2,68.0,90,82,65,29.99,29.91,13,3,16,0.01
2013-2-27,92.6,78.6,68.2,73.0,68.9,66.0,93,74,46,30.00,29.89,9,1,11,0.00
2013-2-28,88.6,77.2,66.4,71.0,67.9,64.0,92,75,50,29.98,29.84,11,1,16,0.00
2013-3-1,89.1,77.1,68.0,71.0,67.6,62.0,93,74,42,29.94,29.81,9,1,10,0.00
2013-3-2,90.8,76.6,65.6,68.0,65.8,62.0,92,71,43,29.92,29.81,8,2,12,0.00
2013-3-3,93.1,80.3,67.9,74.0,70.1,66.0,93,73,48,29.94,29.83,9,1,12,0.00
2013-3-4,88.8,78.3,72.4,74.0,71.8,70.0,95,81,55,30.00,29.89,8,1,10,0.83
2013-3-5,74.5,72.4,71.9,73.0,71.2,70.0,96,95,94,30.03,29.94,3,0,4,0.11
2013-3-26,80.6,78.0,74.6,72.0,70.9,68.0,83,78,74,29.98,29.91,4,1,7,0.00
2013-3-27,92.2,80.8,70.2,74.0,70.5,67.0,91,73,45,29.98,29.86,11,2,12,0.00
2013-3-28,86.2,78.7,71.9,73.0,70.6,68.0,90,77,57,29.98,29.89,9,2,14,0.00
2013-3-29,83.7,75.1,71.9,73.0,69.9,67.7,92,84,67,30.07,29.93,12,4,20,0.22
2013-3-30,79.7,76.2,72.0,74.0,70.6,68.0,91,83,77,30.08,29.99,14,5,17,0.11
2013-3-31,80.3,75.7,73.5,74.0,72.0,70.5,95,88,80,30.08,30.00,11,4,16,1.10
2013-4-1,86.0,79.5,75.4,74.0,71.5,68.9,93,77,58,30.06,29.96,15,4,17,0.00
2013-4-2,91.3,81.3,71.0,73.0,70.6,68.0,90,72,49,30.01,29.92,7,2,17,0.00
2013-4-3,94.1,80.5,70.3,74.0,70.3,66.0,91,73,43,30.02,29.90,10,2,14,0.00
2013-4-4,86.6,78.9,70.1,73.0,70.6,67.0,90,76,56,30.03,29.94,13,3,17,0.00
2013-4-5,85.3,77.8,72.2,73.0,70.5,68.0,91,79,60,30.02,29.89,9,2,15,0.00
2013-4-6,91.1,80.8,70.8,73.0,70.9,68.0,92,73,52,29.99,29.88,9,2,13,0.00
2013-4-7,93.6,82.7,72.7,76.0,72.1,68.0,93,73,46,29.99,29.90,6,2,12,0.01
2013-4-8,88.7,81.2,76.5,76.0,72.7,67.0,91,76,50,30.00,29.90,11,4,17,0.16
2013-4-9,87.4,80.0,73.9,75.0,73.0,69.0,95,80,57,30.01,29.90,11,3,14,0.56
2013-4-10,85.8,79.1,73.0,74.0,71.7,70.0,91,78,60,29.99,29.90,12,3,17,0.01
2013-4-11,86.8,79.1,71.8,72.0,69.9,65.0,92,74,50,29.99,29.89,9,3,16,0.07
2013-4-12,86.4,77.5,71.8,73.0,70.2,67.0,86,79,56,29.97,29.89,9,2,14,0.00
2013-4-13,87.4,80.3,72.3,75.0,71.8,69.0,91,76,58,29.96,29.87,14,3,15,0.01
2013-4-14,88.4,80.5,74.5,74.0,71.5,69.0,91,75,56,29.98,29.89,11,3,16,0.01
2013-4-15,88.9,79.9,71.5,74.0,71.5,68.0,90,76,57,30.00,29.91,14,3,17,0.00
2013-4-16,76.1,73.0,71.5,73.0,69.7,68.0,95,89,83,29.98,29.93,2,0,6,1.11
2013-4-17,85.7,76.7,68.9,74.0,70.9,68.0,97,83,62,29.97,29.89,13,3,17,0.00
2013-4-18,77.7,51.7,77.5,71.0,14.0,-99.9,81,54,81,29.99,0.00,11,-328,11,0.00
2013-4-19,82.3,78.6,73.5,72.0,70.8,69.0,92,77,66,30.04,29.93,15,6,20,0.14
2013-4-20,81.6,76.7,73.8,73.0,71.8,70.0,92,85,69,30.02,29.92,14,3,16,0.06
2013-4-21,83.1,77.1,70.1,72.0,69.0,65.0,94,77,58,30.02,29.92,11,3,17,0.00
2013-4-22,83.6,77.2,67.8,70.0,67.6,64.0,90,73,58,29.98,29.88,10,3,17,0.00
2013-4-23,85.8,78.2,69.3,71.0,67.7,64.0,89,72,52,29.96,29.85,11,3,16,0.00
2013-4-24,81.6,74.8,71.3,71.3,69.9,68.0,93,85,71,29.96,29.88,2,0,5,0.11
2013-4-25,84.9,77.5,68.8,73.0,70.1,67.0,94,79,63,29.98,29.89,9,2,12,0.00
2013-4-26,85.0,78.1,70.0,72.0,70.0,67.0,92,77,58,29.97,29.90,9,2,12,0.00
2013-4-27,84.1,78.0,70.7,74.0,70.5,-99.9,93,79,65,29.95,29.85,11,-4,15,0.11
2013-4-28,85.4,77.9,71.5,73.0,71.6,70.0,96,82,62,29.94,29.85,10,2,14,0.10
2013-4-29,85.5,78.3,70.8,74.3,71.9,67.8,92,81,67,29.94,29.86,13,3,14,0.00
2013-4-30,81.7,74.6,71.1,74.5,70.2,68.0,91,86,77,29.95,29.88,6,0,10,0.01
2013-5-11,88.5,79.4,74.6,78.2,74.3,72.7,95,85,62,29.93,29.87,8,1,9,0.46
2013-5-12,85.0,77.4,73.5,76.0,72.2,-99.9,95,86,69,29.95,29.88,7,-9,10,0.04
2013-5-13,87.1,80.0,71.7,78.0,74.2,70.0,96,83,69,29.97,29.89,13,2,16,0.02
2013-5-14,91.0,81.7,73.0,77.0,74.1,71.0,94,79,58,29.98,29.88,8,1,10,0.02
2013-5-15,85.7,77.6,74.2,77.0,74.4,72.0,96,90,70,29.97,29.89,11,1,12,0.93
2013-5-16,85.8,79.5,73.5,76.0,73.6,72.0,96,82,67,29.97,29.89,8,2,12,0.93
2013-5-17,86.7,80.1,73.4,76.0,73.5,71.0,91,80,67,30.02,29.92,12,3,16,0.00
2013-5-18,85.6,79.3,70.6,76.0,72.2,68.0,91,79,64,30.01,29.94,12,3,16,0.00
2013-5-19,87.6,80.0,72.1,76.0,73.0,69.0,92,80,61,29.99,29.91,11,3,15,0.24
2013-5-20,85.8,79.6,72.0,75.0,73.0,70.0,93,80,67,29.99,29.91,12,4,17,0.01
2013-5-21,83.7,76.9,74.3,76.0,74.4,73.0,96,92,77,29.96,29.89,8,2,14,2.74
2013-5-22,79.5,75.5,73.9,76.0,73.8,72.0,96,94,87,29.99,29.88,10,1,16,0.92
2013-5-23,86.2,79.3,73.3,76.0,73.3,71.0,94,82,61,30.01,29.92,11,4,16,0.13
2013-5-24,87.9,80.2,74.0,77.0,74.2,72.0,96,82,65,30.00,29.91,12,4,16,0.20
2013-5-25,88.9,81.0,76.3,76.0,74.6,72.0,91,81,59,30.00,29.91,11,2,14,0.03
2013-5-26,85.7,80.3,75.0,78.0,75.2,72.0,93,84,71,30.02,29.94,10,3,14,0.02
2013-5-27,85.8,77.0,73.9,78.0,73.6,-99.9,97,91,74,30.02,29.93,11,-6,18,3.00
2013-5-28,84.9,77.0,74.4,78.0,73.5,-99.9,97,91,77,30.00,29.94,9,-7,14,0.07
2013-5-29,86.1,80.0,74.4,78.0,75.5,73.0,96,86,73,30.01,29.93,11,4,17,0.08
2013-5-30,86.6,80.1,75.3,78.0,75.8,74.0,95,87,71,30.01,29.94,15,4,15,1.22
2013-5-31,82.2,78.5,74.3,78.0,75.7,73.0,95,91,84,30.03,29.95,8,2,14,0.05
2013-6-1,87.3,80.8,73.4,77.0,74.5,72.0,95,81,63,30.01,29.94,13,3,17,0.10
2013-6-2,87.7,81.2,73.8,75.0,73.4,71.0,92,78,58,30.01,29.93,10,3,16,0.00
2013-6-3,89.6,81.4,73.4,77.0,74.6,71.0,92,80,62,30.00,29.92,14,3,16,0.07
2013-6-4,91.8,81.9,76.2,78.0,74.7,69.0,94,81,49,30.02,29.90,7,2,10,0.33
2013-6-5,89.2,82.8,76.1,78.0,75.7,73.0,91,80,61,29.99,29.88,12,4,17,0.00
2013-6-6,86.8,81.5,75.6,75.0,73.8,72.0,90,78,65,29.99,29.90,12,4,15,0.00
2013-6-7,85.4,78.6,73.5,77.0,73.6,70.0,93,85,68,29.99,29.92,8,2,13,0.64
2013-6-8,86.3,80.1,73.9,76.0,74.2,72.0,94,82,67,29.99,29.91,8,2,12,0.66
2013-6-9,88.6,81.6,75.3,78.0,75.1,72.0,91,81,60,30.01,29.93,9,3,15,0.00
2013-6-10,85.0,80.4,78.3,78.0,76.0,74.0,93,86,75,30.01,29.94,13,3,15,0.15
2013-6-11,84.8,79.4,75.3,78.0,76.1,74.0,95,89,78,30.03,29.94,8,2,15,0.41
2013-6-12,85.7,79.9,74.8,79.0,76.4,73.0,96,89,74,30.04,29.96,9,2,12,1.16
2013-6-13,86.4,81.2,76.8,79.0,76.7,74.0,93,86,75,30.01,29.93,15,3,15,0.13
2013-6-14,88.9,82.6,76.2,79.0,76.4,75.0,96,82,67,29.97,29.90,14,4,16,0.36
2013-6-15,94.1,83.9,77.7,80.0,77.5,75.0,94,81,59,30.01,29.91,5,1,13,0.12
2013-6-16,87.6,82.0,74.7,78.0,76.0,72.0,93,82,70,30.01,29.93,10,3,15,0.00
2013-6-17,84.7,81.7,79.1,78.0,75.8,74.0,90,82,75,30.01,29.96,11,4,13,0.03
2013-6-18,85.8,81.4,76.6,78.0,76.3,74.0,94,84,76,30.01,29.93,12,4,16,0.24
2013-6-19,82.7,76.8,73.9,77.0,74.2,71.0,96,92,78,30.00,29.92,16,3,16,0.29
2013-6-20,87.5,81.1,75.1,78.0,75.1,70.0,93,82,69,30.00,29.92,10,4,16,0.01
2013-6-21,86.0,80.5,74.7,76.0,73.6,72.0,94,80,66,30.02,29.95,11,3,14,0.05
2013-6-22,85.0,78.6,75.1,76.0,74.1,73.0,96,86,67,30.00,29.93,15,2,19,0.77
2013-6-23,86.1,79.2,73.1,78.0,75.0,72.0,97,87,69,30.01,29.93,8,2,14,0.19
2013-6-24,85.3,79.1,75.2,79.0,76.1,74.0,96,91,75,30.01,29.95,10,2,10,0.42
2013-6-25,86.0,78.7,75.3,79.0,75.8,74.0,96,91,74,29.99,29.93,9,1,13,0.40
2013-6-26,88.1,77.8,74.0,78.0,74.6,72.0,96,90,68,29.97,29.91,9,2,14,1.23
2013-6-27,87.4,77.1,73.4,80.2,74.1,70.8,97,91,75,29.98,29.91,6,1,11,0.09
2013-6-28,89.3,81.2,72.4,77.0,74.2,71.0,97,80,59,29.98,29.91,11,2,13,0.09
2013-6-29,87.2,81.3,74.1,77.0,75.0,71.0,92,81,70,29.96,29.90,10,3,15,0.03
2013-6-30,86.0,79.7,76.4,79.0,75.9,73.4,94,88,76,29.99,29.89,11,1,17,0.12
2013-7-1,87.1,79.3,73.2,78.4,74.7,71.9,96,86,71,30.04,29.93,9,1,14,0.02
2013-7-2,85.2,78.0,74.7,77.0,72.2,-99.9,95,84,71,30.07,29.97,11,-8,15,0.51
2013-7-3,85.3,78.2,72.8,77.0,72.6,-99.9,96,86,71,30.03,29.95,10,-10,18,0.55
2013-7-4,89.3,82.5,77.5,79.0,76.9,76.0,96,83,64,30.02,29.95,9,3,15,0.64
2013-7-5,87.2,82.3,77.4,77.0,75.0,73.0,88,79,64,30.01,29.94,10,3,14,0.00
2013-7-6,86.4,79.7,75.3,78.2,74.9,72.6,95,86,68,29.97,29.88,12,2,16,0.79
2013-7-7,87.6,79.5,73.6,79.0,76.4,73.0,97,90,72,29.97,29.87,10,2,13,0.39
2013-7-8,88.7,81.2,77.3,79.0,76.6,75.0,96,86,64,30.04,29.91,12,3,16,0.39
2013-7-9,87.0,81.7,76.8,79.0,77.4,73.0,95,87,73,30.03,29.96,12,4,19,0.26
2013-7-10,88.6,82.8,76.2,80.2,77.3,73.7,95,84,68,30.01,29.93,9,3,13,0.50
2013-7-11,88.3,82.6,76.6,78.0,76.2,74.0,93,81,68,30.00,29.92,12,3,14,0.00
2013-7-12,87.5,82.1,77.0,76.0,74.6,73.0,92,79,63,29.96,29.89,7,2,12,0.00
2013-7-13,87.4,81.2,76.1,77.0,74.5,73.0,92,80,65,29.95,29.88,9,2,13,0.00
2013-7-14,86.0,78.5,74.0,78.0,74.1,72.0,95,87,74,29.95,29.88,9,1,12,0.08
2013-7-15,89.5,73.3,81.4,76.0,49.9,-99.9,78,60,63,29.93,0.00,11,-138,12,0.02
2013-7-16,90.4,84.9,80.3,79.0,77.3,75.0,90,79,62,30.02,29.94,13,4,15,0.00
2013-7-17,87.9,82.6,76.6,79.0,76.9,73.0,91,83,71,30.02,29.94,12,4,15,0.01
2013-7-18,80.8,75.6,71.8,78.0,74.5,71.0,99,96,88,30.06,29.91,6,1,14,5.79
2013-7-19,88.3,82.6,75.5,78.0,76.5,74.0,98,82,70,30.06,29.97,11,3,14,0.00
2013-7-20,87.8,82.9,77.0,78.0,76.3,74.0,91,81,67,30.04,29.96,10,3,14,0.00
2013-7-21,87.6,82.1,74.1,78.0,75.3,72.0,96,80,68,30.02,29.94,13,4,17,0.22
2013-7-22,82.7,79.8,76.1,79.0,77.0,74.0,95,91,82,30.03,29.95,8,1,16,0.74
2013-7-23,89.0,82.8,76.8,79.0,76.9,75.0,97,83,69,30.00,29.92,11,2,14,0.00
2013-7-24,89.1,82.5,74.9,79.0,76.1,72.0,91,81,70,29.97,29.89,9,2,15,0.01
2013-7-25,89.7,83.4,76.8,79.0,76.7,74.0,94,81,65,30.03,29.93,10,3,15,0.03
2013-7-26,88.9,81.9,75.5,78.0,74.7,72.0,91,79,65,30.03,29.95,10,2,14,0.13
2013-7-27,89.0,80.7,74.4,78.0,75.0,72.0,93,83,63,30.01,29.93,8,1,13,0.04
2013-7-28,88.8,80.6,73.6,77.0,74.9,71.0,93,83,67,29.98,29.92,11,1,16,0.00
2013-7-29,95.4,84.1,75.1,77.0,74.2,71.0,93,74,46,30.02,29.91,5,1,12,0.00
2013-7-30,88.6,82.2,76.1,79.4,76.0,73.0,91,82,70,30.06,29.97,11,2,14,0.01
2013-8-7,85.7,81.5,78.7,78.0,76.2,74.0,91,84,73,29.89,29.84,6,1,13,0.42
2013-8-8,89.2,82.1,76.4,79.0,76.2,75.0,95,83,67,29.90,29.82,11,3,16,0.62
2013-8-9,87.9,81.8,77.9,79.3,76.7,74.0,94,85,71,29.93,29.85,12,3,12,0.71
2013-8-10,87.9,81.4,76.5,80.0,76.8,72.0,96,86,66,29.96,29.87,11,2,14,0.47
2013-8-11,87.7,80.8,74.0,77.0,74.6,72.0,94,82,68,29.96,29.88,13,2,16,0.07
2013-8-12,87.1,80.5,74.3,78.0,74.4,71.0,95,82,65,29.96,29.88,9,2,17,0.11
2013-8-13,91.0,83.4,74.6,77.0,74.2,69.0,92,75,49,29.97,29.89,11,2,14,0.00
2013-8-14,91.6,84.8,77.3,78.0,75.9,72.0,90,75,55,29.98,29.89,15,2,15,0.00
2013-8-15,89.2,83.6,77.5,78.0,75.9,73.0,88,78,65,29.97,29.89,12,3,13,0.00
2013-8-16,87.8,81.1,76.0,79.0,76.1,73.0,93,85,68,29.93,29.84,8,2,13,0.43
2013-8-17,90.2,83.2,74.9,78.0,76.4,73.0,93,80,65,29.94,29.84,12,3,15,0.08
2013-8-18,89.6,82.3,77.1,79.0,76.5,73.0,95,83,63,29.95,29.88,9,2,14,0.52
2013-8-19,89.9,81.9,76.1,80.0,77.2,74.0,95,86,70,29.91,29.82,9,2,15,0.25
2013-8-20,90.5,81.4,77.1,77.0,76.3,74.0,94,85,61,29.97,29.83,6,1,13,0.13
2013-8-21,88.7,81.4,73.9,80.0,76.1,72.0,97,85,67,29.96,29.89,8,2,14,0.22
2013-8-22,85.8,78.9,73.3,80.0,75.1,72.0,96,88,74,29.95,29.88,7,1,11,1.03
2013-8-23,88.6,81.2,75.6,81.0,77.3,74.0,97,88,74,29.94,29.85,7,2,13,0.01
2013-8-24,88.0,82.5,74.6,78.0,76.0,73.0,94,81,70,29.98,29.91,11,3,14,0.00
2013-8-25,88.7,82.3,78.3,78.0,76.1,74.0,93,82,64,29.99,29.91,14,3,17,0.17
2013-8-26,89.1,81.9,74.9,79.0,77.1,73.0,96,85,71,29.94,29.84,11,2,16,0.03
2013-8-27,90.7,83.0,77.2,78.0,75.3,71.0,95,79,53,29.94,29.84,13,3,17,0.18
2013-8-28,89.9,82.6,74.9,79.0,76.0,72.0,92,81,67,29.98,29.89,9,2,17,0.01
2013-8-29,88.4,82.2,76.0,79.0,76.3,73.0,91,82,70,29.97,29.87,13,2,14,0.01
2013-8-30,93.9,83.2,76.1,80.0,76.4,73.0,93,81,56,29.96,29.87,9,1,12,0.00
2013-8-31,90.3,83.2,76.9,80.0,77.2,74.0,94,83,67,29.95,29.86,9,2,13,0.72
2013-9-1,89.2,82.9,76.6,81.0,77.5,75.0,95,84,65,29.93,29.85,9,2,13,0.03
2013-9-2,89.1,81.7,75.2,79.0,75.8,73.0,95,83,64,29.91,29.82,11,2,16,0.57
2013-9-3,86.8,79.3,74.8,79.0,75.4,72.8,97,88,72,29.89,29.79,13,2,15,0.93
2013-9-4,85.8,79.0,76.7,80.0,76.5,73.5,97,92,80,29.88,29.80,9,2,20,0.62
2013-9-5,82.9,77.3,75.0,79.0,75.3,73.0,97,93,85,29.92,29.79,8,1,12,1.62
2013-9-6,86.6,79.6,74.4,78.0,75.5,73.0,98,87,74,29.92,29.83,6,0,9,0.08
2013-9-7,86.8,80.2,76.1,78.0,76.0,74.0,95,87,71,29.92,29.82,4,0,8,0.15
2013-9-8,92.1,82.8,73.7,79.0,75.6,70.0,94,80,59,29.91,29.81,7,1,11,0.18
2013-9-12,85.4,81.8,77.5,78.0,76.7,75.2,94,85,76,29.80,29.75,5,2,8,0.40
2013-9-13,88.1,81.7,75.4,79.0,76.0,74.0,97,83,68,29.79,29.69,8,2,13,0.11
2013-9-14,89.4,80.9,75.2,80.0,76.3,73.0,94,86,69,29.91,29.76,7,1,11,1.20
2013-9-15,91.0,82.8,74.6,80.0,76.7,73.0,95,82,64,29.95,29.85,8,1,11,0.00
2013-9-16,87.3,83.1,80.6,79.0,78.1,76.0,91,85,73,29.90,29.83,9,2,11,0.02
2013-9-17,90.6,83.1,76.7,80.0,76.6,74.0,93,81,62,29.91,29.82,12,2,12,0.00
2013-9-18,94.5,84.0,76.1,80.0,76.8,74.0,92,79,61,29.90,29.80,5,1,11,0.14
2013-9-19,96.2,85.2,76.7,79.0,76.6,72.0,93,76,55,29.91,29.81,10,1,11,0.00
2013-9-20,97.6,85.1,80.1,80.0,77.1,73.0,89,78,56,29.90,29.80,4,1,10,0.00
2013-9-21,92.9,83.8,77.5,79.0,76.7,75.0,92,80,59,29.85,29.77,5,1,8,0.00
2013-9-22,96.3,85.7,78.0,79.0,75.9,73.0,91,74,49,29.92,29.80,7,1,9,0.00
2013-9-23,93.1,83.9,75.1,79.0,76.2,72.0,90,78,61,29.97,29.87,10,2,13,0.00
2013-9-24,96.7,85.5,77.0,79.0,75.8,69.0,92,74,42,29.95,29.84,7,1,10,0.00
2013-9-25,95.5,84.9,75.7,76.0,74.6,73.0,91,73,50,29.90,29.79,9,1,13,0.00
2013-9-26,96.0,85.9,76.4,77.0,75.0,73.0,90,71,51,29.89,29.77,10,1,12,0.00
2013-9-27,96.3,86.0,76.3,77.0,74.7,73.0,91,71,50,29.89,29.78,9,2,12,0.00
2013-9-28,95.6,85.8,76.5,76.0,74.5,71.0,89,71,48,29.92,29.81,8,1,16,0.00
2013-9-29,97.6,85.7,76.7,78.0,75.7,73.0,90,73,52,29.93,29.82,6,1,12,0.00
2013-9-30,94.6,83.4,77.0,79.0,76.4,73.0,92,80,57,29.98,29.86,9,1,11,0.04
2013-10-1,87.2,78.7,76.1,79.0,74.4,73.0,91,87,71,29.96,29.90,3,0,11,0.00
2013-10-2,80.0,79.2,78.6,77.0,76.4,76.0,91,90,90,29.90,29.89,1,0,4,0.36
2013-10-3,88.3,81.3,75.8,80.0,76.3,74.0,95,85,67,29.93,29.83,12,2,15,0.23
2013-10-4,95.5,82.4,74.9,78.0,75.3,73.0,95,80,52,29.95,29.80,9,1,16,0.52
2013-10-5,91.7,80.7,72.6,79.0,74.9,71.0,94,84,57,29.92,29.82,7,1,11,0.09
2013-10-6,90.4,80.9,74.2,80.0,76.1,72.0,95,86,64,29.90,29.78,5,1,10,0.05
2013-10-7,96.1,83.4,74.9,78.0,75.6,73.0,95,79,52,29.91,29.82,5,1,9,0.00
2013-10-8,90.6,82.9,76.6,79.0,76.4,75.0,93,81,66,29.94,29.85,5,0,9,0.00
2013-10-9,96.3,84.5,76.1,76.0,74.2,72.0,90,73,49,29.94,29.84,7,1,10,0.00
2013-10-10,91.7,81.4,74.9,78.0,74.4,72.0,92,80,56,29.91,29.82,9,2,14,0.02
2013-10-11,89.0,81.2,75.1,79.0,75.5,73.0,96,83,65,29.90,29.82,13,2,13,0.25
2013-10-12,89.3,80.6,74.1,79.0,75.3,72.0,93,84,68,29.90,29.81,7,1,10,0.00
2013-10-13,91.9,80.9,74.0,79.0,74.8,72.0,93,82,59,29.90,29.81,7,1,13,0.02
2013-10-14,93.5,83.0,74.4,76.0,74.1,71.0,94,76,49,29.88,29.80,11,2,14,0.00
2013-10-15,94.3,83.3,75.3,78.0,73.9,72.0,91,75,51,29.90,29.80,10,1,12,0.00
2013-10-16,95.8,83.1,74.3,77.0,73.1,70.0,92,74,45,29.89,29.79,5,1,13,0.00
2013-10-17,88.9,81.2,72.8,77.0,73.5,70.0,90,78,60,29.91,29.80,10,1,11,0.00
2013-10-18,87.6,80.4,74.5,77.0,74.6,72.0,93,83,68,29.91,29.81,4,0,6,0.00
2013-10-19,88.8,80.2,74.4,78.0,75.4,72.0,94,85,66,29.89,29.81,7,1,8,0.12
2013-10-20,89.5,80.2,73.4,80.0,75.3,71.0,94,85,69,29.91,29.82,6,0,9,0.12
2013-10-21,91.8,80.0,74.5,79.0,75.9,73.0,95,87,64,29.92,29.83,4,0,9,0.61
2013-10-22,91.5,82.2,75.4,78.0,74.6,71.0,96,79,54,29.92,29.83,9,1,12,0.00
2013-10-23,91.5,81.6,74.6,76.0,74.1,72.0,92,79,53,29.92,29.82,10,2,15,0.00
2013-10-24,90.6,82.5,74.9,77.0,74.8,73.0,93,79,58,29.95,29.86,10,2,14,0.00
2013-10-25,89.7,82.1,76.2,76.0,74.7,72.0,92,79,59,29.99,29.89,5,1,10,0.00
2013-10-26,89.9,81.4,74.1,76.8,74.6,72.0,93,81,62,29.96,29.85,14,2,17,0.06
2013-10-27,91.3,81.7,74.3,78.0,74.3,71.4,92,79,59,29.95,29.85,9,2,13,0.00
2013-10-28,87.7,79.9,73.5,79.0,75.0,72.0,95,85,65,29.97,29.87,10,2,14,0.39
2013-10-29,80.4,77.5,75.2,77.0,75.5,74.0,97,93,88,29.96,29.87,9,0,9,0.91
2013-10-30,87.6,80.4,73.1,77.0,74.6,70.0,93,83,69,29.93,29.83,9,1,10,0.10
2013-10-31,86.4,78.6,74.1,77.0,75.0,73.0,97,89,74,29.90,29.78,9,2,13,0.53
2013-11-1,85.9,78.1,73.5,78.0,74.1,71.0,97,88,70,29.88,29.77,8,1,15,0.54
2013-11-2,87.8,79.2,71.8,79.0,74.8,71.0,98,86,70,29.88,29.78,4,1,8,0.04
2013-11-3,87.8,79.6,74.1,78.0,74.6,72.0,93,85,68,29.88,29.78,6,1,13,0.23
2013-11-4,93.0,81.6,74.1,77.0,73.4,71.0,94,77,54,29.86,29.76,8,1,8,0.00
2013-11-5,90.4,80.0,74.0,77.0,73.9,71.0,91,82,62,29.86,29.77,5,0,9,0.05
2013-11-6,88.6,78.9,73.8,78.0,74.0,72.0,94,85,65,29.87,29.77,10,0,11,0.45
2013-11-7,89.4,78.6,71.5,76.0,73.0,70.0,95,83,63,29.87,29.77,6,1,10,0.00
2013-11-8,89.0,78.9,72.3,78.0,73.8,71.0,95,85,66,29.90,29.80,5,1,9,0.28
2013-11-9,89.6,80.4,72.9,77.0,73.9,71.0,94,81,59,29.94,29.85,12,2,13,0.00
2013-11-10,88.5,80.6,74.4,77.0,74.4,72.0,93,82,62,29.95,29.87,10,2,15,0.07
2013-11-11,88.5,80.7,73.6,77.0,75.0,72.0,95,83,63,29.98,29.90,9,2,13,0.09
2013-11-12,88.6,81.9,74.4,78.0,75.4,73.0,94,81,64,29.95,29.85,10,2,14,0.00
2013-11-13,89.9,80.8,73.5,77.0,73.4,71.0,92,79,56,29.93,29.84,7,2,13,0.00
2013-11-14,86.3,81.0,72.5,76.0,74.0,70.0,94,80,67,29.97,29.85,10,2,13,0.00
2013-11-15,86.9,79.9,74.6,78.0,75.3,73.0,96,86,69,29.95,29.82,6,1,11,0.65
2013-11-16,87.3,79.2,72.7,77.9,74.3,71.7,97,86,66,29.91,29.81,7,1,9,0.11
2013-11-17,85.6,79.7,74.9,75.0,72.0,69.0,94,78,58,29.85,29.75,6,1,11,0.00
2013-11-18,84.7,77.8,73.2,74.0,71.6,69.0,96,82,63,29.80,29.70,9,2,14,0.71
2013-11-19,83.8,76.9,70.4,74.0,70.8,69.0,96,82,63,29.85,29.73,8,1,10,0.06
2013-11-20,78.6,77.0,75.1,73.0,72.2,72.0,90,85,80,29.95,29.91,0,0,2,0.00
2013-11-21,82.6,77.5,74.2,76.0,74.5,72.0,96,90,78,29.97,29.89,8,2,12,0.71
2013-11-22,75.5,74.3,73.4,73.0,72.6,72.0,96,94,91,29.93,29.87,3,1,6,0.59
2013-11-23,84.5,79.3,73.0,72.0,71.4,70.0,89,77,65,29.86,29.81,8,1,9,0.00
2013-11-24,86.6,78.0,69.5,76.0,72.1,67.0,94,83,64,29.91,29.82,11,1,11,0.00
2013-11-25,84.5,77.8,71.8,77.0,73.0,70.0,95,86,67,29.96,29.87,9,2,14,0.71
2013-11-26,85.0,78.6,73.6,75.0,73.3,72.0,95,84,68,29.97,29.87,11,2,14,0.06
2013-11-27,84.7,75.5,71.3,75.0,71.7,70.0,97,89,64,29.92,29.83,13,1,16,0.73
2013-11-28,84.4,75.5,72.3,75.0,72.7,71.0,98,91,71,29.95,29.86,8,1,17,0.49
2013-11-29,79.8,76.3,73.6,75.0,71.9,69.0,95,86,77,29.98,29.88,7,1,16,0.17
2013-11-30,78.7,74.5,72.8,75.0,72.5,71.0,97,93,85,29.94,29.83,9,2,12,2.08
2013-12-1,84.4,74.7,71.3,77.0,72.6,70.0,98,93,72,29.88,29.80,5,0,10,1.14
2013-12-2,88.7,77.6,70.4,76.0,72.6,70.0,99,86,62,29.87,29.77,6,1,10,0.01
2013-12-5,76.7,74.4,72.3,73.0,72.3,71.0,97,93,86,29.98,29.94,0,0,2,0.78
2013-12-6,83.2,73.9,70.0,76.0,69.8,-99.9,98,90,73,30.00,29.91,10,-10,15,0.01
2013-12-7,80.8,74.2,70.3,74.0,71.3,69.0,96,91,76,30.03,29.93,12,3,21,0.72
2013-12-8,78.1,75.3,71.5,72.0,69.6,68.0,95,83,74,30.04,29.93,16,4,19,0.36
2013-12-10,85.1,80.3,76.5,76.0,73.7,71.0,92,81,65,30.04,29.95,12,3,13,0.19
2013-12-11,81.9,78.0,73.8,76.0,74.2,72.0,95,88,79,30.07,29.95,10,2,14,0.56
2013-12-12,86.1,78.0,70.9,76.0,72.7,70.0,96,85,61,30.02,29.90,8,1,13,0.15
2013-12-13,84.5,76.4,69.2,74.0,70.7,68.0,96,83,65,30.01,29.91,9,2,14,0.01
2013-12-14,83.4,77.9,73.0,77.0,72.8,68.0,93,84,76,30.03,29.95,12,2,14,0.04
2013-12-15,82.7,79.4,74.2,76.0,74.1,71.0,91,83,75,30.06,29.95,9,4,16,0.07
2013-12-16,82.8,77.8,73.8,76.0,74.2,72.0,95,89,75,30.02,29.93,9,2,13,0.24
2013-12-17,85.3,76.3,71.5,75.0,72.3,70.0,97,88,66,30.04,29.91,9,2,12,0.14
2013-12-18,84.2,76.3,70.6,76.0,71.8,70.0,97,87,68,30.02,29.92,9,2,12,0.24
2013-12-19,83.5,78.6,72.4,76.0,73.2,71.0,98,84,68,30.03,29.94,11,3,14,0.20
2013-12-20,83.1,76.7,73.0,75.0,72.1,69.0,96,86,68,30.02,29.92,14,3,18,0.37
2013-12-21,82.1,75.9,72.0,76.0,71.8,68.9,95,87,74,30.02,29.93,15,2,17,0.21
2013-12-22,82.1,77.7,72.7,74.1,71.5,69.4,93,82,71,30.05,29.96,14,4,18,0.04
2013-12-23,82.5,75.7,71.9,74.0,71.1,69.0,97,86,70,30.04,29.94,18,3,27,0.24
2013-12-24,81.0,72.9,69.8,75.0,70.6,68.0,97,92,81,29.94,29.83,6,1,9,0.31
2013-12-25,88.2,75.9,66.1,73.0,66.4,-99.9,96,77,54,29.95,29.82,4,1,10,0.02
2013-12-26,85.1,76.6,67.1,76.0,70.7,65.0,95,82,61,30.04,29.91,12,2,15,0.00
2013-12-27,84.7,76.6,70.6,75.0,72.3,69.0,95,87,70,30.06,29.98,9,2,15,0.02
2013-12-28,84.2,76.9,70.7,75.0,72.5,70.0,96,86,70,30.04,29.94,13,2,16,0.14
2013-12-29,85.2,75.9,70.7,75.0,71.9,70.0,97,88,62,30.02,29.91,9,2,14,0.24
2013-12-30,81.5,75.5,69.9,76.0,72.4,69.0,97,90,73,30.04,29.95,9,2,16,0.16
2013-12-31,83.1,76.8,69.2,74.0,71.3,68.0,96,83,70,30.06,29.96,11,2,17,0.01
2014-1-1,81.6,75.6,71.6,74.2,70.3,-99.9,96,86,72,30.05,29.96,11,-8,16,0.26
2014-1-2,83.8,77.0,72.4,75.2,72.6,70.0,96,86,70,30.00,29.90,19,2,19,0.48